createdAt,value
2018-09-30T00:00:55.578Z,52.94
2018-09-30T00:03:24.146Z,52.66
2018-09-30T00:05:52.784Z,52.99
2018-09-30T00:08:21.601Z,53.04
2018-09-30T00:10:50.242Z,53.03
2018-09-30T00:13:18.941Z,53.09
2018-09-30T00:15:47.636Z,53.01
2018-09-30T00:18:16.356Z,53.38
2018-09-30T00:20:44.908Z,53.01
2018-09-30T00:23:13.435Z,53.19
2018-09-30T00:25:47.064Z,52.93
2018-09-30T00:28:15.730Z,53.65
2018-09-30T00:30:44.326Z,53.48
2018-09-30T00:33:12.876Z,53.27
2018-09-30T00:35:41.470Z,53.41
2018-09-30T00:38:10.066Z,52.99
2018-09-30T00:40:38.603Z,53.11
2018-09-30T00:43:07.234Z,53.42
2018-09-30T00:45:35.859Z,53.49
2018-09-30T00:48:04.505Z,53.21
2018-09-30T00:50:33.076Z,53.20
2018-09-30T00:53:01.730Z,53.34
2018-09-30T00:55:30.353Z,53.59
2018-09-30T00:57:58.932Z,53.20
2018-09-30T01:00:27.563Z,53.39
2018-09-30T01:02:56.133Z,53.42
2018-09-30T01:05:24.774Z,53.78
2018-09-30T01:07:53.442Z,53.48
2018-09-30T01:10:22.050Z,53.87
2018-09-30T01:12:50.741Z,53.66
2018-09-30T01:15:19.322Z,53.75
2018-09-30T01:17:47.889Z,53.68
2018-09-30T01:20:16.464Z,53.59
2018-09-30T01:22:44.977Z,53.65
2018-09-30T01:25:13.494Z,54.07
2018-09-30T01:27:42.007Z,53.76
2018-09-30T01:30:10.594Z,53.86
2018-09-30T01:32:39.143Z,53.98
2018-09-30T01:35:07.759Z,54.02
2018-09-30T01:37:36.341Z,53.99
2018-09-30T01:40:04.845Z,54.12
2018-09-30T01:42:33.369Z,53.82
2018-09-30T01:45:01.884Z,53.88
2018-09-30T01:47:30.448Z,53.84
2018-09-30T01:49:59.130Z,53.86
2018-09-30T01:52:38.823Z,53.82
2018-09-30T01:55:07.373Z,54.23
2018-09-30T01:57:35.884Z,54.16
2018-09-30T02:00:04.384Z,54.27
2018-09-30T02:02:32.935Z,53.99
2018-09-30T02:05:01.521Z,54.60
2018-09-30T02:07:30.004Z,54.65
2018-09-30T02:09:58.508Z,54.45
2018-09-30T02:12:27.075Z,54.31
2018-09-30T02:14:55.613Z,54.44
2018-09-30T02:17:24.182Z,54.59
2018-09-30T02:19:52.734Z,54.34
2018-09-30T02:22:21.228Z,54.21
2018-09-30T02:24:49.840Z,54.63
2018-09-30T02:27:18.392Z,54.28
2018-09-30T02:29:47.128Z,54.44
2018-09-30T02:32:15.697Z,54.35
2018-09-30T02:34:44.272Z,54.71
2018-09-30T02:37:12.851Z,54.41
2018-09-30T02:39:41.372Z,54.13
2018-09-30T02:42:10.493Z,54.68
2018-09-30T02:44:39.044Z,54.74
2018-09-30T02:47:07.603Z,54.47
2018-09-30T02:49:36.213Z,54.23
2018-09-30T02:52:04.749Z,54.38
2018-09-30T02:54:33.388Z,54.55
2018-09-30T02:57:01.948Z,54.40
2018-09-30T02:59:30.512Z,54.34
2018-09-30T03:01:59.017Z,54.52
2018-09-30T03:04:27.557Z,54.79
2018-09-30T03:07:01.252Z,54.57
2018-09-30T03:09:29.804Z,54.64
2018-09-30T03:11:58.401Z,55.07
2018-09-30T03:14:26.956Z,54.83
2018-09-30T03:16:55.554Z,54.81
2018-09-30T03:19:24.148Z,54.83
2018-09-30T03:21:52.783Z,54.88
2018-09-30T03:24:21.453Z,54.88
2018-09-30T03:26:49.994Z,55.24
2018-09-30T03:29:18.603Z,55.17
2018-09-30T03:31:47.156Z,55.06
2018-09-30T03:34:15.828Z,55.32
2018-09-30T03:36:44.453Z,55.42
2018-09-30T03:39:13.146Z,54.97
2018-09-30T03:41:41.746Z,55.34
2018-09-30T03:44:10.400Z,55.43
2018-09-30T03:46:39.168Z,55.04
2018-09-30T03:49:07.956Z,55.29
2018-09-30T03:51:36.643Z,55.15
2018-09-30T03:54:05.300Z,55.43
2018-09-30T03:56:33.906Z,55.39
2018-09-30T03:59:02.464Z,55.26
2018-09-30T04:01:31.046Z,55.62
2018-09-30T04:03:59.811Z,55.88
2018-09-30T04:06:28.661Z,55.28
2018-09-30T04:08:57.212Z,55.63
2018-09-30T04:11:25.908Z,55.67
2018-09-30T04:13:54.524Z,55.47
2018-09-30T04:16:23.087Z,55.32
2018-09-30T04:18:51.661Z,55.38
2018-09-30T04:21:20.312Z,55.52
2018-09-30T04:23:48.880Z,55.34
2018-09-30T04:26:17.466Z,55.72
2018-09-30T04:28:45.980Z,55.42
2018-09-30T04:31:14.601Z,55.84
2018-09-30T04:33:43.248Z,55.90
2018-09-30T04:36:11.836Z,55.73
2018-09-30T04:38:40.425Z,55.58
2018-09-30T04:41:09.063Z,55.74
2018-09-30T04:43:37.641Z,56.16
2018-09-30T04:46:06.342Z,55.83
2018-09-30T04:48:34.919Z,55.80
2018-09-30T04:51:03.448Z,56.09
2018-09-30T04:53:32.022Z,55.81
2018-09-30T04:56:00.579Z,55.79
2018-09-30T04:58:29.091Z,56.35
2018-09-30T05:00:58.024Z,56.04
2018-09-30T05:03:27.123Z,56.40
2018-09-30T05:05:56.187Z,56.16
2018-09-30T05:08:25.712Z,56.09
2018-09-30T05:10:54.817Z,56.13
2018-09-30T05:13:24.079Z,56.02
2018-09-30T05:15:53.036Z,56.58
2018-09-30T05:18:22.108Z,56.13
2018-09-30T05:20:50.890Z,56.48
2018-09-30T05:23:19.878Z,56.30
2018-09-30T05:25:48.728Z,56.38
2018-09-30T05:28:17.809Z,56.52
2018-09-30T05:30:46.668Z,56.65
2018-09-30T05:33:15.634Z,56.67
2018-09-30T05:35:44.617Z,55.88
2018-09-30T05:38:13.501Z,56.28
2018-09-30T05:40:42.493Z,56.54
2018-09-30T05:43:11.556Z,56.44
2018-09-30T05:45:40.377Z,56.10
2018-09-30T05:48:09.322Z,55.80
2018-09-30T05:50:38.334Z,56.27
2018-09-30T05:53:07.513Z,55.97
2018-09-30T05:55:36.399Z,56.09
2018-09-30T05:58:05.394Z,55.94
2018-09-30T06:00:34.294Z,56.08
2018-09-30T06:03:03.763Z,55.97
2018-09-30T06:05:32.818Z,56.15
2018-09-30T06:08:01.744Z,55.76
2018-09-30T06:10:30.813Z,55.79
2018-09-30T06:12:59.833Z,55.63
2018-09-30T06:15:28.971Z,55.42
2018-09-30T06:17:58.174Z,55.04
2018-09-30T06:20:27.056Z,55.48
2018-09-30T06:22:56.095Z,54.99
2018-09-30T06:25:25.106Z,55.17
2018-09-30T06:27:54.167Z,55.07
2018-09-30T06:30:22.994Z,54.81
2018-09-30T06:32:52.142Z,53.69
2018-09-30T06:35:21.200Z,52.94
2018-09-30T06:37:50.206Z,52.35
2018-09-30T06:40:19.305Z,51.34
2018-09-30T06:42:48.494Z,49.44
2018-09-30T06:45:17.682Z,48.70
2018-09-30T06:47:46.626Z,46.62
2018-09-30T06:50:15.878Z,44.68
2018-09-30T06:52:44.873Z,42.80
2018-09-30T06:55:13.869Z,42.68
2018-09-30T06:57:42.856Z,42.10
2018-09-30T07:00:11.936Z,40.52
2018-09-30T07:02:40.946Z,39.09
2018-09-30T07:05:10.106Z,38.52
2018-09-30T07:07:39.122Z,36.25
2018-09-30T07:10:08.099Z,35.05
2018-09-30T07:12:37.310Z,34.39
2018-09-30T07:15:06.120Z,33.49
2018-09-30T07:17:34.888Z,32.96
2018-09-30T07:20:03.833Z,31.37
2018-09-30T07:22:32.599Z,30.89
2018-09-30T07:25:01.824Z,30.34
2018-09-30T07:27:30.909Z,30.18
2018-09-30T07:30:00.312Z,28.32
2018-09-30T07:32:29.638Z,29.36
2018-09-30T07:34:58.906Z,27.87
2018-09-30T07:37:28.209Z,26.69
2018-09-30T07:39:57.776Z,25.75
2018-09-30T07:42:26.706Z,26.41
2018-09-30T07:44:55.692Z,25.51
2018-09-30T07:47:24.683Z,24.18
2018-09-30T07:49:53.862Z,23.80
2018-09-30T07:52:22.869Z,24.15
2018-09-30T07:54:52.120Z,23.06
2018-09-30T07:57:21.499Z,22.02
2018-09-30T07:59:50.168Z,22.48
2018-09-30T08:02:19.148Z,21.59
2018-09-30T08:04:48.111Z,20.56
2018-09-30T08:07:16.919Z,20.77
2018-09-30T08:09:45.699Z,20.04
2018-09-30T08:12:14.803Z,20.50
2018-09-30T08:14:43.517Z,19.75
2018-09-30T08:17:12.423Z,18.45
2018-09-30T08:19:41.337Z,17.46
2018-09-30T08:22:10.130Z,17.05
2018-09-30T08:24:38.975Z,16.82
2018-09-30T08:27:07.850Z,16.50
2018-09-30T08:29:36.625Z,16.99
2018-09-30T08:32:05.778Z,15.34
2018-09-30T08:34:34.672Z,15.50
2018-09-30T08:37:03.643Z,14.71
2018-09-30T08:39:32.556Z,14.67
2018-09-30T08:42:01.573Z,14.54
2018-09-30T08:44:30.206Z,13.98
2018-09-30T08:46:58.972Z,13.66
2018-09-30T08:49:28.032Z,12.91
2018-09-30T08:51:56.858Z,13.02
2018-09-30T08:54:25.852Z,12.96
2018-09-30T08:56:54.909Z,12.44
2018-09-30T08:59:23.937Z,11.67
2018-09-30T09:01:52.937Z,11.43
2018-09-30T09:04:21.961Z,11.56
2018-09-30T09:06:50.812Z,11.17
2018-09-30T09:09:19.506Z,10.72
2018-09-30T09:11:48.291Z,10.29
2018-09-30T09:14:17.840Z,10.65
2018-09-30T09:16:46.647Z,10.42
2018-09-30T09:19:15.427Z,10.12
2018-09-30T09:21:44.310Z,9.72
2018-09-30T09:24:12.943Z,9.61
2018-09-30T09:26:41.537Z,9.03
2018-09-30T09:31:49.990Z,9.19
2018-09-30T09:34:18.625Z,8.74
2018-09-30T09:36:55.445Z,8.44
2018-09-30T09:39:24.669Z,8.22
2018-09-30T09:41:53.501Z,8.72
2018-09-30T09:44:25.941Z,8.67
2018-09-30T09:46:55.119Z,8.00
2018-09-30T09:49:23.804Z,8.03
2018-09-30T09:51:52.608Z,8.25
2018-09-30T09:54:21.563Z,8.11
2018-09-30T09:56:51.176Z,8.31
2018-09-30T09:59:20.275Z,7.51
2018-09-30T10:01:48.864Z,7.57
2018-09-30T10:04:17.604Z,7.19
2018-09-30T10:06:46.853Z,7.59
2018-09-30T10:09:20.046Z,7.19
2018-09-30T10:11:49.201Z,7.11
2018-09-30T10:14:17.966Z,7.29
2018-09-30T10:16:46.633Z,6.94
2018-09-30T10:19:15.262Z,6.80
2018-09-30T10:21:43.823Z,6.00
2018-09-30T10:24:12.463Z,6.50
2018-09-30T10:26:41.135Z,6.58
2018-09-30T10:29:12.704Z,6.01
2018-09-30T10:31:41.897Z,5.67
2018-09-30T10:34:11.086Z,5.78
2018-09-30T10:36:45.451Z,5.58
2018-09-30T10:39:21.956Z,5.14
2018-09-30T10:41:55.327Z,5.62
2018-09-30T10:44:24.064Z,5.02
2018-09-30T10:47:18.861Z,4.92
2018-09-30T11:03:56.047Z,4.48
2018-09-30T11:06:25.693Z,3.81
2018-09-30T11:08:54.168Z,3.64
2018-09-30T11:11:22.639Z,3.86
2018-09-30T11:13:51.136Z,4.97
2018-09-30T11:16:19.595Z,4.29
2018-09-30T11:18:48.097Z,4.31
2018-09-30T11:21:16.537Z,4.04
2018-09-30T11:23:45.019Z,3.79
2018-09-30T11:26:13.484Z,4.02
2018-09-30T11:28:41.936Z,3.83
2018-09-30T11:31:10.392Z,3.41
2018-09-30T11:33:38.906Z,3.38
2018-09-30T11:36:07.413Z,3.51
2018-09-30T11:38:35.893Z,2.81
2018-09-30T11:41:04.392Z,2.72
2018-09-30T11:43:32.928Z,3.02
2018-09-30T11:46:01.427Z,3.45
2018-09-30T11:48:29.973Z,3.68
2018-09-30T11:50:58.465Z,3.30
2018-09-30T11:53:27.087Z,3.53
2018-09-30T11:55:55.671Z,3.27
2018-09-30T11:58:24.189Z,3.83
2018-09-30T12:00:52.653Z,4.31
2018-09-30T12:03:21.147Z,4.05
2018-09-30T12:05:49.659Z,5.01
2018-09-30T12:08:18.166Z,6.29
2018-09-30T12:10:46.638Z,6.64
2018-09-30T12:13:15.088Z,7.59
2018-09-30T12:15:43.587Z,8.01
2018-09-30T12:18:12.039Z,10.10
2018-09-30T12:20:40.612Z,9.79
2018-09-30T12:23:09.251Z,10.99
2018-09-30T12:25:37.840Z,12.32
2018-09-30T12:28:06.541Z,12.20
2018-09-30T12:30:35.275Z,13.27
2018-09-30T12:33:03.828Z,13.18
2018-09-30T12:35:32.385Z,14.67
2018-09-30T12:38:00.922Z,14.86
2018-09-30T12:40:29.648Z,15.43
2018-09-30T12:42:58.237Z,15.38
2018-09-30T12:45:26.775Z,16.20
2018-09-30T12:47:55.301Z,16.31
2018-09-30T12:50:23.843Z,16.70
2018-09-30T12:52:52.370Z,16.59
2018-09-30T12:55:20.919Z,16.56
2018-09-30T13:00:28.556Z,17.49
2018-09-30T13:02:57.103Z,18.03
2018-09-30T13:05:25.793Z,17.59
2018-09-30T13:07:54.433Z,17.96
2018-09-30T13:10:23.096Z,17.66
2018-09-30T13:12:55.774Z,17.96
2018-09-30T13:15:24.422Z,17.44
2018-09-30T13:17:52.997Z,17.53
2018-09-30T13:20:21.645Z,18.08
2018-09-30T13:22:51.610Z,17.96
2018-09-30T13:25:20.234Z,18.48
2018-09-30T13:27:48.815Z,18.96
2018-09-30T13:30:17.491Z,18.44
2018-09-30T13:32:46.229Z,19.71
2018-09-30T13:35:14.910Z,20.44
2018-09-30T13:37:43.676Z,19.57
2018-09-30T13:40:12.417Z,20.72
2018-09-30T13:42:40.999Z,20.88
2018-09-30T13:45:09.755Z,20.24
2018-09-30T13:47:38.485Z,21.08
2018-09-30T13:50:07.236Z,20.13
2018-09-30T13:52:35.813Z,20.39
2018-09-30T13:55:04.401Z,20.21
2018-09-30T13:57:33.072Z,20.75
2018-09-30T14:00:01.821Z,20.52
2018-09-30T14:02:30.391Z,20.76
2018-09-30T14:04:58.989Z,20.18
2018-09-30T14:07:27.550Z,21.04
2018-09-30T14:09:56.176Z,20.40
2018-09-30T14:12:27.065Z,20.80
2018-09-30T14:14:55.881Z,20.37
2018-09-30T14:17:24.847Z,21.12
2018-09-30T14:19:53.461Z,21.13
2018-09-30T14:22:22.282Z,22.04
2018-09-30T14:24:50.866Z,21.89
2018-09-30T14:27:19.668Z,21.39
2018-09-30T14:29:48.059Z,21.09
2018-09-30T14:32:16.603Z,21.48
2018-09-30T14:34:45.230Z,22.14
2018-09-30T14:37:13.852Z,22.47
2018-09-30T14:39:42.576Z,22.36
2018-09-30T14:42:11.184Z,22.82
2018-09-30T14:44:39.935Z,23.21
2018-09-30T14:47:08.602Z,22.95
2018-09-30T14:49:37.326Z,23.25
2018-09-30T14:52:06.013Z,23.39
2018-09-30T14:54:34.666Z,22.74
2018-09-30T14:57:03.363Z,22.69
2018-09-30T14:59:32.057Z,23.56
2018-09-30T15:02:00.800Z,22.96
2018-09-30T15:04:29.445Z,23.45
2018-09-30T15:06:58.052Z,23.37
2018-09-30T15:09:26.726Z,23.19
2018-09-30T15:11:55.389Z,23.89
2018-09-30T15:14:24.052Z,23.92
2018-09-30T15:16:52.731Z,24.14
2018-09-30T15:19:21.364Z,23.78
2018-09-30T15:21:50.007Z,23.17
2018-09-30T15:24:18.643Z,23.49
2018-09-30T15:26:47.398Z,24.19
2018-09-30T15:29:15.964Z,24.13
2018-09-30T15:31:44.686Z,24.47
2018-09-30T15:34:13.292Z,24.63
2018-09-30T15:36:41.908Z,24.09
2018-09-30T15:39:12.313Z,24.09
2018-09-30T15:41:41.525Z,24.12
2018-09-30T15:44:11.156Z,24.54
2018-09-30T15:46:39.725Z,24.24
2018-09-30T15:49:08.533Z,25.11
2018-09-30T15:51:37.281Z,24.30
2018-09-30T15:54:05.995Z,24.51
2018-09-30T15:56:34.634Z,24.80
2018-09-30T15:59:03.214Z,25.24
2018-09-30T16:01:31.783Z,25.00
2018-09-30T16:04:00.573Z,25.85
2018-09-30T16:06:29.246Z,25.93
2018-09-30T16:08:58.016Z,25.83
2018-09-30T16:11:26.666Z,25.88
2018-09-30T16:13:55.463Z,25.70
2018-09-30T16:16:24.076Z,25.85
2018-09-30T16:18:52.724Z,26.84
2018-09-30T16:21:21.483Z,27.08
2018-09-30T16:23:50.063Z,26.82
2018-09-30T16:26:18.846Z,26.83
2018-09-30T16:28:47.466Z,27.35
2018-09-30T16:31:16.188Z,27.72
2018-09-30T16:33:44.777Z,27.33
2018-09-30T16:36:13.510Z,27.24
2018-09-30T16:38:42.282Z,27.44
2018-09-30T16:41:11.012Z,28.32
2018-09-30T16:43:39.762Z,27.70
2018-09-30T16:46:08.427Z,28.46
2018-09-30T16:48:37.117Z,28.25
2018-09-30T16:51:05.810Z,28.79
2018-09-30T16:53:34.483Z,28.43
2018-09-30T16:56:03.064Z,28.70
2018-09-30T16:58:31.907Z,29.00
2018-09-30T17:01:00.605Z,28.81
2018-09-30T17:03:29.393Z,29.67
2018-09-30T17:05:58.028Z,29.66
2018-09-30T17:08:27.043Z,30.58
2018-09-30T17:10:55.638Z,31.19
2018-09-30T17:13:24.406Z,30.86
2018-09-30T17:15:53.433Z,31.29
2018-09-30T17:18:22.247Z,31.49
2018-09-30T17:20:51.104Z,31.93
2018-09-30T17:23:19.821Z,32.61
2018-09-30T17:25:48.585Z,32.46
2018-09-30T17:28:17.451Z,33.03
2018-09-30T17:30:46.157Z,32.67
2018-09-30T17:33:17.109Z,33.81
2018-09-30T17:35:46.077Z,33.95
2018-09-30T17:38:14.819Z,33.50
2018-09-30T17:40:43.420Z,34.58
2018-09-30T17:43:12.163Z,34.77
2018-09-30T17:45:40.884Z,34.29
2018-09-30T17:48:09.758Z,35.29
2018-09-30T17:50:38.496Z,35.46
2018-09-30T17:53:07.356Z,34.94
2018-09-30T17:55:36.444Z,35.14
2018-09-30T17:58:05.067Z,35.47
2018-09-30T18:00:33.852Z,35.59
2018-09-30T18:03:02.788Z,35.75
2018-09-30T18:05:31.464Z,35.83
2018-09-30T18:08:00.501Z,36.06
2018-09-30T18:10:29.546Z,35.97
2018-09-30T18:12:58.745Z,36.53
2018-09-30T18:15:28.041Z,36.41
2018-09-30T18:17:57.041Z,36.40
2018-09-30T18:20:26.854Z,37.29
2018-09-30T18:22:58.097Z,36.77
2018-09-30T18:25:26.950Z,37.01
2018-09-30T18:27:55.740Z,37.74
2018-09-30T18:30:24.501Z,37.38
2018-09-30T18:32:53.314Z,37.68
2018-09-30T18:35:22.180Z,37.44
2018-09-30T18:37:50.903Z,38.27
2018-09-30T18:40:19.650Z,37.77
2018-09-30T18:42:48.476Z,37.64
2018-09-30T18:45:17.346Z,38.32
2018-09-30T18:47:46.267Z,38.71
2018-09-30T18:50:14.961Z,38.33
2018-09-30T18:52:43.741Z,38.52
2018-09-30T18:55:12.396Z,38.56
2018-09-30T18:57:41.010Z,38.73
2018-09-30T19:00:09.680Z,39.31
2018-09-30T19:02:38.378Z,39.04
2018-09-30T19:05:06.974Z,39.30
2018-09-30T19:07:35.566Z,39.20
2018-09-30T19:10:04.135Z,39.63
2018-09-30T19:12:32.740Z,39.83
2018-09-30T19:15:01.344Z,39.76
2018-09-30T19:17:29.921Z,39.78
2018-09-30T19:19:58.576Z,40.20
2018-09-30T19:22:27.154Z,40.06
2018-09-30T19:24:55.708Z,40.44
2018-09-30T19:27:24.751Z,40.15
2018-09-30T19:29:53.417Z,40.35
2018-09-30T19:32:21.990Z,40.21
2018-09-30T19:34:50.566Z,40.94
2018-09-30T19:37:19.180Z,40.45
2018-09-30T19:39:47.797Z,40.75
2018-09-30T19:42:16.383Z,40.82
2018-09-30T19:44:44.958Z,40.49
2018-09-30T19:47:13.544Z,40.72
2018-09-30T19:49:42.180Z,40.74
2018-09-30T19:52:10.723Z,41.21
2018-09-30T19:54:39.293Z,40.95
2018-09-30T19:57:07.845Z,40.31
2018-09-30T19:59:36.489Z,39.97
2018-09-30T20:02:05.070Z,40.36
2018-09-30T20:04:33.609Z,40.02
2018-09-30T20:07:02.328Z,39.48
2018-09-30T20:09:31.012Z,40.41
2018-09-30T20:11:59.449Z,40.31
2018-09-30T20:14:28.144Z,39.87
2018-09-30T20:16:56.650Z,40.30
2018-09-30T20:19:25.621Z,40.40
2018-09-30T20:21:54.146Z,40.91
2018-09-30T20:24:22.690Z,40.96
2018-09-30T20:26:51.249Z,41.18
2018-09-30T20:29:19.810Z,41.02
2018-09-30T20:31:48.464Z,41.83
2018-09-30T20:34:17.071Z,41.96
2018-09-30T20:36:45.719Z,41.73
2018-09-30T20:39:14.399Z,41.94
2018-09-30T20:41:43.073Z,42.27
2018-09-30T20:44:11.747Z,42.01
2018-09-30T20:46:40.466Z,41.88
2018-09-30T20:49:09.068Z,42.04
2018-09-30T20:51:37.773Z,42.09
2018-09-30T20:54:06.427Z,42.57
2018-09-30T20:56:35.028Z,42.97
2018-09-30T20:59:03.633Z,43.15
2018-09-30T21:01:32.521Z,42.79
2018-09-30T21:04:01.185Z,43.10
2018-09-30T21:06:35.984Z,42.89
2018-09-30T21:09:07.133Z,43.12
2018-09-30T21:11:35.834Z,43.59
2018-09-30T21:14:04.694Z,43.38
2018-09-30T21:16:33.364Z,43.15
2018-09-30T21:19:01.887Z,43.25
2018-09-30T21:21:30.593Z,43.56
2018-09-30T21:23:59.212Z,43.55
2018-09-30T21:26:27.753Z,43.82
2018-09-30T21:28:56.316Z,43.93
2018-09-30T21:31:24.908Z,43.64
2018-09-30T21:33:53.475Z,44.20
2018-09-30T21:36:22.061Z,43.91
2018-09-30T21:38:50.633Z,44.33
2018-09-30T21:41:19.174Z,43.71
2018-09-30T21:43:47.630Z,43.97
2018-09-30T21:46:16.123Z,43.93
2018-09-30T21:48:44.825Z,43.87
2018-09-30T21:51:13.374Z,44.22
2018-09-30T21:53:41.925Z,44.19
2018-09-30T21:56:12.272Z,44.34
2018-09-30T21:58:41.337Z,44.32
2018-09-30T22:01:10.754Z,44.37
2018-09-30T22:03:39.261Z,44.43
2018-09-30T22:06:08.105Z,44.98
2018-09-30T22:08:36.679Z,45.02
2018-09-30T22:11:07.576Z,44.74
2018-09-30T22:13:37.371Z,45.35
2018-09-30T22:16:08.836Z,45.51
2018-09-30T22:18:39.498Z,44.94
2018-09-30T22:21:09.202Z,45.30
2018-09-30T22:23:39.550Z,45.25
2018-09-30T22:26:08.942Z,46.09
2018-09-30T22:28:39.553Z,45.50
2018-09-30T22:31:11.154Z,46.02
2018-09-30T22:33:39.641Z,46.16
2018-09-30T22:36:08.134Z,45.87
2018-09-30T22:38:36.627Z,45.69
2018-09-30T22:41:05.158Z,46.58
2018-09-30T22:43:33.717Z,46.85
2018-09-30T22:46:02.253Z,46.85
2018-09-30T22:48:33.514Z,46.72
2018-09-30T22:51:02.060Z,47.09
2018-09-30T22:53:30.517Z,47.56
2018-09-30T22:55:59.121Z,47.29
2018-09-30T22:58:27.698Z,47.38
2018-09-30T23:00:58.204Z,47.70
2018-09-30T23:03:26.849Z,47.62
2018-09-30T23:05:55.377Z,47.97
2018-09-30T23:08:23.878Z,48.17
2018-09-30T23:10:52.455Z,48.02
2018-09-30T23:13:21.294Z,48.26
2018-09-30T23:15:49.828Z,48.19
2018-09-30T23:18:19.482Z,48.17
2018-09-30T23:20:49.066Z,49.03
2018-09-30T23:23:18.811Z,49.20
2018-09-30T23:25:49.499Z,49.20
2018-09-30T23:28:20.201Z,49.02
2018-09-30T23:30:51.220Z,48.84
2018-09-30T23:33:19.776Z,49.42
2018-09-30T23:35:48.255Z,48.74
2018-09-30T23:38:16.692Z,49.05
2018-09-30T23:40:45.151Z,49.39
2018-09-30T23:43:13.625Z,49.43
2018-09-30T23:45:42.090Z,49.74
2018-09-30T23:48:10.588Z,49.36
2018-09-30T23:50:39.113Z,49.81
2018-09-30T23:53:07.544Z,49.42
2018-09-30T23:55:35.943Z,49.59
2018-09-30T23:58:13.892Z,49.57
